KAMW

Ames Municipal Airport

Ames, Iowa, USA
METAR KAMW 180153Z AUTO 33007KT 10SM CLR 24/19 A3003 RMK AO2 SLP160 T02390189
Observed Flight Rules
Aug-18 @ 01:53 UTC (38 minutes ago) Visual Flight Rules
Wind Visibility Clouds
330° at 7 knots 10 miles
  • Clear skies
Temperatures Readings
Current 24°C / 75°F
Dewpoint 19°C / 66°F
Humidity 74%
Altimeter 30.03" Hg
Pressure 1016 hPa
Elevation 279
METAR KAMW 180153Z AUTO 33007KT 10SM CLR 24/19 A3003 RMK AO2 SLP160 T02390189
Observed Flight Rules
Aug-18 @ 01:53 UTC
(38 minutes ago)
VFR
Wind Visibility
330° at 7 knots 10 miles
Clouds
  • Clear skies
Temperature Dewpoint
24°C / 75°F 19°C / 66°F
Humidity Altimeter Pressure
74% 30.03" Hg 1016 hPa